Cleethorpes, United Kingdom
Current Conditions -  °F | °C
As of 10:50 PM on Tuesday 25 Nov 2014 (Local Time) from EGXS Reporting Station
Broken Clouds Broken Clouds  
Wind Chill: 50°   Ceiling: 12000
Heat Index: 50°   Visibility: 6mi
Dew Point: 45°   Wind: 15mph
Humidity: 82%   Direction: 70°ENE
Pressure: 30.09"   Gusts: NA
Location:  53.56°N, 0.03°W
Report Text: EGXS 252250Z AUTO 07013KT 9999 // SCT080/// BKN120/// 10/07 Q1019
Loading
Personal Weather Stations






























Interactive Weather Map New forecast layout! Learn more

10-Day Weather Forecast

Advertisements
Track Severe Weather on mobile